world map with GLT marked

GLT - Airport

This information may not be accurate or current and is not valid for navigation or flight planning. No warranty of fitness for any purpose is made or implied.

flag of Queenslandflag of Australia

Donate via PayPal

Additional information is available on the NEW Great Circle Mapper

Location
City:  Gladstone, Queensland, Australia
ICAO / IATA:YGLA / GLT

Details
Type:Airport (Aerodrome, Airfield)
Latitude:23°52'11"S (-23.869721)
Longitude:151°13'22"E (151.222778)
Datum:WGS 1984
Elevation:64 ft (20 m)
Runways:1
Longest:5364 × 98 ft (1635 × 30 m)

Time
Timezone:UTC+10 (DST+12)
Local Time:

Weather
METAR:YGLA  041400Z AUTO 14007KT 9999 // SCT026 SCT031 26/20 Q1009
TAF:YGLA  041011Z 0412/0424 14012KT 9999 -SHRA SCT020 BKN035

Related Locations
Nearby:
Farthest:NTO: 11917 mi / 19178 km
Ponta do Sol [Agostinho Neto], Ribeira Grande, Santo Antão, CV

Find:

   beyond  
but within

Other Information
Maps:
Sources:

  


 


Great Circle Mapper   Great Circle Mapper
Great Circle Mapper FAQ   Great Circle Mapper FAQ
  Karl's Home Page
KLSē   KLSē Home
   GC on Facebook
Airlines of the World   Airlines of the World
Donate via PayPal


Copyright © 2004-2022, Karl L. Swartz. All rights reserved.
All trademarks mentioned herein belong to their respective owners.

Please see credits for attribution and copyright information.

Karl Swartz <karl@kls2.com>
  Powered by FreeBSD
Valid HTML 4.01!
Labeled with ICRA
hCard Microformat
Geo Microformat